sensor_id;sensor_type;location;lat;lon;timestamp;P1;durP1;ratioP1;P2;durP2;ratioP2
9960;SDS011;5021;51.506;11.320;2022-12-29T00:01:47;2.67;;;2.33;;
9960;SDS011;5021;51.506;11.320;2022-12-29T00:04:13;3.70;;;2.37;;
9960;SDS011;5021;51.506;11.320;2022-12-29T00:06:40;2.87;;;2.23;;
9960;SDS011;5021;51.506;11.320;2022-12-29T00:09:06;3.13;;;2.50;;
9960;SDS011;5021;51.506;11.320;2022-12-29T00:11:32;3.23;;;2.27;;
9960;SDS011;5021;51.506;11.320;2022-12-29T00:13:58;3.50;;;2.67;;
9960;SDS011;5021;51.506;11.320;2022-12-29T00:16:43;4.87;;;2.50;;
9960;SDS011;5021;51.506;11.320;2022-12-29T00:19:10;3.93;;;2.70;;
9960;SDS011;5021;51.506;11.320;2022-12-29T00:21:56;2.30;;;2.10;;
9960;SDS011;5021;51.506;11.320;2022-12-29T00:24:43;4.33;;;2.57;;
9960;SDS011;5021;51.506;11.320;2022-12-29T00:27:28;2.70;;;2.13;;
9960;SDS011;5021;51.506;11.320;2022-12-29T00:30:14;2.53;;;2.33;;
9960;SDS011;5021;51.506;11.320;2022-12-29T00:32:59;2.97;;;2.13;;
9960;SDS011;5021;51.506;11.320;2022-12-29T00:35:50;3.10;;;2.33;;
9960;SDS011;5021;51.506;11.320;2022-12-29T00:38:18;3.03;;;2.30;;
9960;SDS011;5021;51.506;11.320;2022-12-29T00:41:02;4.63;;;2.30;;
9960;SDS011;5021;51.506;11.320;2022-12-29T00:43:47;3.97;;;2.87;;
9960;SDS011;5021;51.506;11.320;2022-12-29T00:46:34;2.77;;;2.10;;
9960;SDS011;5021;51.506;11.320;2022-12-29T00:49:00;3.13;;;2.30;;
9960;SDS011;5021;51.506;11.320;2022-12-29T00:51:45;2.63;;;2.00;;
9960;SDS011;5021;51.506;11.320;2022-12-29T00:54:12;2.53;;;2.30;;
9960;SDS011;5021;51.506;11.320;2022-12-29T00:56:38;2.20;;;1.93;;
9960;SDS011;5021;51.506;11.320;2022-12-29T00:59:05;2.47;;;2.10;;
9960;SDS011;5021;51.506;11.320;2022-12-29T01:01:31;2.97;;;2.07;;
9960;SDS011;5021;51.506;11.320;2022-12-29T01:03:57;2.83;;;2.10;;
9960;SDS011;5021;51.506;11.320;2022-12-29T01:06:23;2.37;;;2.13;;
9960;SDS011;5021;51.506;11.320;2022-12-29T01:08:49;2.40;;;2.10;;
9960;SDS011;5021;51.506;11.320;2022-12-29T01:11:35;2.77;;;2.03;;
9960;SDS011;5021;51.506;11.320;2022-12-29T01:14:00;2.97;;;1.97;;
9960;SDS011;5021;51.506;11.320;2022-12-29T01:16:26;2.53;;;2.10;;
9960;SDS011;5021;51.506;11.320;2022-12-29T01:18:52;2.30;;;2.10;;
9960;SDS011;5021;51.506;11.320;2022-12-29T01:21:19;2.10;;;1.90;;
9960;SDS011;5021;51.506;11.320;2022-12-29T01:23:44;2.37;;;2.17;;
9960;SDS011;5021;51.506;11.320;2022-12-29T01:26:11;2.37;;;2.17;;
9960;SDS011;5021;51.506;11.320;2022-12-29T01:28:37;3.07;;;2.30;;
9960;SDS011;5021;51.506;11.320;2022-12-29T01:31:05;3.80;;;2.00;;
9960;SDS011;5021;51.506;11.320;2022-12-29T01:33:31;3.27;;;2.23;;
9960;SDS011;5021;51.506;11.320;2022-12-29T01:36:00;3.33;;;2.10;;
9960;SDS011;5021;51.506;11.320;2022-12-29T01:38:26;2.40;;;2.20;;
9960;SDS011;5021;51.506;11.320;2022-12-29T01:40:52;2.40;;;2.20;;
9960;SDS011;5021;51.506;11.320;2022-12-29T01:43:18;3.80;;;2.27;;
9960;SDS011;5021;51.506;11.320;2022-12-29T01:45:47;3.50;;;2.20;;
9960;SDS011;5021;51.506;11.320;2022-12-29T01:48:14;2.77;;;2.00;;
9960;SDS011;5021;51.506;11.320;2022-12-29T01:50:41;3.87;;;2.20;;
9960;SDS011;5021;51.506;11.320;2022-12-29T01:53:10;2.10;;;1.90;;
9960;SDS011;5021;51.506;11.320;2022-12-29T01:55:38;3.30;;;1.90;;
9960;SDS011;5021;51.506;11.320;2022-12-29T01:58:06;2.20;;;2.00;;
9960;SDS011;5021;51.506;11.320;2022-12-29T02:00:32;2.27;;;2.00;;
9960;SDS011;5021;51.506;11.320;2022-12-29T02:02:58;2.50;;;2.00;;
9960;SDS011;5021;51.506;11.320;2022-12-29T02:05:28;3.03;;;2.23;;
9960;SDS011;5021;51.506;11.320;2022-12-29T02:07:56;3.60;;;1.97;;
9960;SDS011;5021;51.506;11.320;2022-12-29T02:10:23;2.47;;;2.03;;
9960;SDS011;5021;51.506;11.320;2022-12-29T02:12:50;2.50;;;2.30;;
9960;SDS011;5021;51.506;11.320;2022-12-29T02:15:17;3.40;;;2.30;;
9960;SDS011;5021;51.506;11.320;2022-12-29T02:21:05;3.37;;;2.40;;
9960;SDS011;5021;51.506;11.320;2022-12-29T02:26:29;2.30;;;2.10;;
9960;SDS011;5021;51.506;11.320;2022-12-29T02:31:52;2.73;;;2.13;;
9960;SDS011;5021;51.506;11.320;2022-12-29T02:44:27;3.00;;;2.17;;
9960;SDS011;5021;51.506;11.320;2022-12-29T02:46:58;2.97;;;2.40;;
9960;SDS011;5021;51.506;11.320;2022-12-29T02:49:33;3.87;;;2.40;;
9960;SDS011;5021;51.506;11.320;2022-12-29T02:52:01;2.43;;;2.23;;
9960;SDS011;5021;51.506;11.320;2022-12-29T02:54:28;2.80;;;2.47;;
9960;SDS011;5021;51.506;11.320;2022-12-29T02:57:27;2.07;;;1.90;;
9960;SDS011;5021;51.506;11.320;2022-12-29T02:59:56;3.20;;;2.53;;
9960;SDS011;5021;51.506;11.320;2022-12-29T03:02:30;3.07;;;2.10;;
9960;SDS011;5021;51.506;11.320;2022-12-29T03:05:11;2.30;;;2.00;;
9960;SDS011;5021;51.506;11.320;2022-12-29T03:07:45;3.27;;;2.07;;
9960;SDS011;5021;51.506;11.320;2022-12-29T03:10:25;2.97;;;2.47;;
9960;SDS011;5021;51.506;11.320;2022-12-29T03:12:56;2.87;;;2.10;;
9960;SDS011;5021;51.506;11.320;2022-12-29T03:15:57;3.50;;;2.40;;
9960;SDS011;5021;51.506;11.320;2022-12-29T03:18:28;2.53;;;1.93;;
9960;SDS011;5021;51.506;11.320;2022-12-29T03:20:58;2.77;;;1.90;;
9960;SDS011;5021;51.506;11.320;2022-12-29T03:23:26;2.27;;;2.07;;
9960;SDS011;5021;51.506;11.320;2022-12-29T03:25:53;2.50;;;2.30;;
9960;SDS011;5021;51.506;11.320;2022-12-29T03:31:07;4.10;;;2.33;;
9960;SDS011;5021;51.506;11.320;2022-12-29T03:33:34;4.03;;;2.00;;
9960;SDS011;5021;51.506;11.320;2022-12-29T03:36:03;2.77;;;2.20;;
9960;SDS011;5021;51.506;11.320;2022-12-29T03:38:46;2.40;;;2.20;;
9960;SDS011;5021;51.506;11.320;2022-12-29T03:41:14;2.03;;;1.93;;
9960;SDS011;5021;51.506;11.320;2022-12-29T03:43:42;2.67;;;2.30;;
9960;SDS011;5021;51.506;11.320;2022-12-29T03:46:08;2.83;;;2.10;;
9960;SDS011;5021;51.506;11.320;2022-12-29T03:48:34;3.50;;;2.23;;
9960;SDS011;5021;51.506;11.320;2022-12-29T03:51:00;3.03;;;2.50;;
9960;SDS011;5021;51.506;11.320;2022-12-29T03:53:26;2.70;;;2.30;;
9960;SDS011;5021;51.506;11.320;2022-12-29T03:55:51;3.50;;;2.30;;
9960;SDS011;5021;51.506;11.320;2022-12-29T03:58:17;2.27;;;2.07;;
9960;SDS011;5021;51.506;11.320;2022-12-29T04:00:43;2.47;;;2.10;;
9960;SDS011;5021;51.506;11.320;2022-12-29T04:03:09;2.57;;;2.00;;
9960;SDS011;5021;51.506;11.320;2022-12-29T04:05:35;2.93;;;2.20;;
9960;SDS011;5021;51.506;11.320;2022-12-29T04:08:01;3.53;;;2.10;;
9960;SDS011;5021;51.506;11.320;2022-12-29T04:10:27;2.37;;;2.10;;
9960;SDS011;5021;51.506;11.320;2022-12-29T04:12:53;3.30;;;2.00;;
9960;SDS011;5021;51.506;11.320;2022-12-29T04:15:19;2.30;;;2.10;;
9960;SDS011;5021;51.506;11.320;2022-12-29T04:17:45;2.57;;;2.10;;
9960;SDS011;5021;51.506;11.320;2022-12-29T04:20:11;2.30;;;2.10;;
9960;SDS011;5021;51.506;11.320;2022-12-29T04:23:02;2.07;;;1.87;;
9960;SDS011;5021;51.506;11.320;2022-12-29T04:25:28;3.00;;;2.17;;
9960;SDS011;5021;51.506;11.320;2022-12-29T04:27:54;3.07;;;2.13;;
9960;SDS011;5021;51.506;11.320;2022-12-29T04:30:20;2.30;;;2.00;;
9960;SDS011;5021;51.506;11.320;2022-12-29T04:32:46;2.07;;;1.83;;
9960;SDS011;5021;51.506;11.320;2022-12-29T04:35:12;2.20;;;2.00;;
9960;SDS011;5021;51.506;11.320;2022-12-29T04:37:38;2.80;;;2.27;;
9960;SDS011;5021;51.506;11.320;2022-12-29T04:40:04;2.20;;;1.90;;
9960;SDS011;5021;51.506;11.320;2022-12-29T04:42:30;3.70;;;2.07;;
9960;SDS011;5021;51.506;11.320;2022-12-29T04:44:56;2.70;;;1.93;;
9960;SDS011;5021;51.506;11.320;2022-12-29T04:50:12;2.00;;;1.80;;
9960;SDS011;5021;51.506;11.320;2022-12-29T04:52:38;2.83;;;2.00;;
9960;SDS011;5021;51.506;11.320;2022-12-29T04:55:04;2.60;;;1.80;;
9960;SDS011;5021;51.506;11.320;2022-12-29T04:57:30;2.50;;;1.90;;
9960;SDS011;5021;51.506;11.320;2022-12-29T04:59:56;2.40;;;2.10;;
9960;SDS011;5021;51.506;11.320;2022-12-29T05:02:22;1.97;;;1.80;;
9960;SDS011;5021;51.506;11.320;2022-12-29T05:04:48;1.73;;;1.63;;
9960;SDS011;5021;51.506;11.320;2022-12-29T05:07:59;3.00;;;2.20;;
9960;SDS011;5021;51.506;11.320;2022-12-29T05:10:09;1.93;;;1.73;;
9960;SDS011;5021;51.506;11.320;2022-12-29T05:12:36;1.73;;;1.63;;
9960;SDS011;5021;51.506;11.320;2022-12-29T05:15:10;2.43;;;2.10;;
9960;SDS011;5021;51.506;11.320;2022-12-29T05:17:36;2.17;;;1.70;;
9960;SDS011;5021;51.506;11.320;2022-12-29T05:20:03;1.87;;;1.77;;
9960;SDS011;5021;51.506;11.320;2022-12-29T05:22:29;1.93;;;1.80;;
9960;SDS011;5021;51.506;11.320;2022-12-29T05:24:55;2.00;;;1.80;;
9960;SDS011;5021;51.506;11.320;2022-12-29T05:27:21;2.10;;;1.90;;
9960;SDS011;5021;51.506;11.320;2022-12-29T05:29:47;2.53;;;1.90;;
9960;SDS011;5021;51.506;11.320;2022-12-29T05:32:13;2.50;;;1.90;;
9960;SDS011;5021;51.506;11.320;2022-12-29T05:34:39;1.80;;;1.70;;
9960;SDS011;5021;51.506;11.320;2022-12-29T05:37:05;2.10;;;1.80;;
9960;SDS011;5021;51.506;11.320;2022-12-29T05:39:31;1.80;;;1.70;;
9960;SDS011;5021;51.506;11.320;2022-12-29T05:41:56;1.87;;;1.77;;
9960;SDS011;5021;51.506;11.320;2022-12-29T05:44:22;1.93;;;1.77;;
9960;SDS011;5021;51.506;11.320;2022-12-29T05:46:48;2.80;;;1.80;;
9960;SDS011;5021;51.506;11.320;2022-12-29T05:49:14;1.97;;;1.63;;
9960;SDS011;5021;51.506;11.320;2022-12-29T05:51:40;3.03;;;1.70;;
9960;SDS011;5021;51.506;11.320;2022-12-29T05:54:06;3.10;;;1.70;;
9960;SDS011;5021;51.506;11.320;2022-12-29T05:56:32;2.00;;;1.80;;
9960;SDS011;5021;51.506;11.320;2022-12-29T05:58:58;2.67;;;1.70;;
9960;SDS011;5021;51.506;11.320;2022-12-29T06:01:24;2.33;;;1.93;;
9960;SDS011;5021;51.506;11.320;2022-12-29T06:03:50;1.87;;;1.70;;
9960;SDS011;5021;51.506;11.320;2022-12-29T06:06:16;2.43;;;1.70;;
9960;SDS011;5021;51.506;11.320;2022-12-29T06:08:42;2.80;;;1.87;;
9960;SDS011;5021;51.506;11.320;2022-12-29T06:11:07;2.77;;;2.00;;
9960;SDS011;5021;51.506;11.320;2022-12-29T06:13:33;2.87;;;2.00;;
9960;SDS011;5021;51.506;11.320;2022-12-29T06:15:59;1.90;;;1.80;;
9960;SDS011;5021;51.506;11.320;2022-12-29T06:18:25;5.03;;;2.10;;
9960;SDS011;5021;51.506;11.320;2022-12-29T06:20:51;2.00;;;1.63;;
9960;SDS011;5021;51.506;11.320;2022-12-29T06:23:17;2.13;;;1.77;;
9960;SDS011;5021;51.506;11.320;2022-12-29T06:25:43;1.90;;;1.80;;
9960;SDS011;5021;51.506;11.320;2022-12-29T06:28:09;1.73;;;1.60;;
9960;SDS011;5021;51.506;11.320;2022-12-29T06:30:35;2.10;;;1.87;;
9960;SDS011;5021;51.506;11.320;2022-12-29T06:33:01;1.50;;;1.40;;
9960;SDS011;5021;51.506;11.320;2022-12-29T06:35:27;2.20;;;1.50;;
9960;SDS011;5021;51.506;11.320;2022-12-29T06:37:53;1.63;;;1.50;;
9960;SDS011;5021;51.506;11.320;2022-12-29T06:40:19;1.60;;;1.50;;
9960;SDS011;5021;51.506;11.320;2022-12-29T06:42:46;1.73;;;1.60;;
9960;SDS011;5021;51.506;11.320;2022-12-29T06:45:12;1.50;;;1.40;;
9960;SDS011;5021;51.506;11.320;2022-12-29T06:47:38;2.13;;;1.50;;
9960;SDS011;5021;51.506;11.320;2022-12-29T06:50:04;2.60;;;1.50;;
9960;SDS011;5021;51.506;11.320;2022-12-29T06:52:30;1.90;;;1.40;;
9960;SDS011;5021;51.506;11.320;2022-12-29T06:54:56;1.90;;;1.70;;
9960;SDS011;5021;51.506;11.320;2022-12-29T06:57:22;1.90;;;1.63;;
9960;SDS011;5021;51.506;11.320;2022-12-29T06:59:48;1.93;;;1.70;;
9960;SDS011;5021;51.506;11.320;2022-12-29T07:02:14;2.10;;;1.50;;
9960;SDS011;5021;51.506;11.320;2022-12-29T07:04:41;3.03;;;1.60;;
9960;SDS011;5021;51.506;11.320;2022-12-29T07:07:07;1.90;;;1.60;;
9960;SDS011;5021;51.506;11.320;2022-12-29T07:09:33;1.93;;;1.60;;
9960;SDS011;5021;51.506;11.320;2022-12-29T07:11:59;1.97;;;1.40;;
9960;SDS011;5021;51.506;11.320;2022-12-29T07:14:25;1.43;;;1.30;;
9960;SDS011;5021;51.506;11.320;2022-12-29T07:16:51;1.83;;;1.50;;
9960;SDS011;5021;51.506;11.320;2022-12-29T07:19:17;1.70;;;1.60;;
9960;SDS011;5021;51.506;11.320;2022-12-29T07:21:43;1.87;;;1.57;;
9960;SDS011;5021;51.506;11.320;2022-12-29T07:24:09;2.90;;;1.80;;
9960;SDS011;5021;51.506;11.320;2022-12-29T07:26:35;2.43;;;1.60;;
9960;SDS011;5021;51.506;11.320;2022-12-29T07:29:01;2.40;;;1.60;;
9960;SDS011;5021;51.506;11.320;2022-12-29T07:31:27;1.60;;;1.50;;
9960;SDS011;5021;51.506;11.320;2022-12-29T07:33:53;1.40;;;1.30;;
9960;SDS011;5021;51.506;11.320;2022-12-29T07:36:19;2.67;;;1.60;;
9960;SDS011;5021;51.506;11.320;2022-12-29T07:38:45;1.80;;;1.70;;
9960;SDS011;5021;51.506;11.320;2022-12-29T07:41:11;2.00;;;1.60;;
9960;SDS011;5021;51.506;11.320;2022-12-29T07:43:37;1.80;;;1.70;;
9960;SDS011;5021;51.506;11.320;2022-12-29T07:46:03;2.73;;;1.47;;
9960;SDS011;5021;51.506;11.320;2022-12-29T07:48:29;2.10;;;1.50;;
9960;SDS011;5021;51.506;11.320;2022-12-29T07:50:55;2.27;;;1.63;;
9960;SDS011;5021;51.506;11.320;2022-12-29T07:53:21;1.53;;;1.43;;
9960;SDS011;5021;51.506;11.320;2022-12-29T07:55:53;2.67;;;1.83;;
9960;SDS011;5021;51.506;11.320;2022-12-29T07:58:19;2.13;;;1.93;;
9960;SDS011;5021;51.506;11.320;2022-12-29T08:00:45;2.53;;;2.20;;
9960;SDS011;5021;51.506;11.320;2022-12-29T08:03:11;2.10;;;1.90;;
9960;SDS011;5021;51.506;11.320;2022-12-29T08:05:45;2.07;;;1.70;;
9960;SDS011;5021;51.506;11.320;2022-12-29T08:08:11;2.23;;;1.80;;
9960;SDS011;5021;51.506;11.320;2022-12-29T08:10:40;2.67;;;1.50;;
9960;SDS011;5021;51.506;11.320;2022-12-29T08:13:06;2.47;;;1.93;;
9960;SDS011;5021;51.506;11.320;2022-12-29T08:15:32;2.37;;;2.00;;
9960;SDS011;5021;51.506;11.320;2022-12-29T08:18:02;1.93;;;1.73;;
9960;SDS011;5021;51.506;11.320;2022-12-29T08:20:28;2.93;;;1.80;;
9960;SDS011;5021;51.506;11.320;2022-12-29T08:22:54;2.00;;;1.80;;
9960;SDS011;5021;51.506;11.320;2022-12-29T08:25:20;2.40;;;1.60;;
9960;SDS011;5021;51.506;11.320;2022-12-29T08:27:46;3.10;;;1.70;;
9960;SDS011;5021;51.506;11.320;2022-12-29T08:30:12;2.17;;;1.83;;
9960;SDS011;5021;51.506;11.320;2022-12-29T08:32:38;2.07;;;1.87;;
9960;SDS011;5021;51.506;11.320;2022-12-29T08:35:04;2.23;;;1.80;;
9960;SDS011;5021;51.506;11.320;2022-12-29T08:37:31;4.13;;;2.67;;
9960;SDS011;5021;51.506;11.320;2022-12-29T08:39:57;3.83;;;2.20;;
9960;SDS011;5021;51.506;11.320;2022-12-29T08:42:24;1.83;;;1.63;;
9960;SDS011;5021;51.506;11.320;2022-12-29T08:44:55;2.23;;;1.83;;
9960;SDS011;5021;51.506;11.320;2022-12-29T08:47:21;2.80;;;2.00;;
9960;SDS011;5021;51.506;11.320;2022-12-29T08:49:47;2.20;;;2.00;;
9960;SDS011;5021;51.506;11.320;2022-12-29T08:52:14;2.00;;;1.73;;
9960;SDS011;5021;51.506;11.320;2022-12-29T08:54:40;2.73;;;1.73;;
9960;SDS011;5021;51.506;11.320;2022-12-29T08:57:05;2.67;;;2.00;;
9960;SDS011;5021;51.506;11.320;2022-12-29T08:59:31;3.20;;;1.73;;
9960;SDS011;5021;51.506;11.320;2022-12-29T09:01:57;2.90;;;1.87;;
9960;SDS011;5021;51.506;11.320;2022-12-29T09:04:23;3.30;;;1.70;;
9960;SDS011;5021;51.506;11.320;2022-12-29T09:06:49;2.73;;;1.50;;
9960;SDS011;5021;51.506;11.320;2022-12-29T09:09:15;2.03;;;1.60;;
9960;SDS011;5021;51.506;11.320;2022-12-29T09:11:42;2.03;;;1.57;;
9960;SDS011;5021;51.506;11.320;2022-12-29T09:14:08;2.90;;;1.70;;
9960;SDS011;5021;51.506;11.320;2022-12-29T09:16:34;1.93;;;1.63;;
9960;SDS011;5021;51.506;11.320;2022-12-29T09:19:00;2.00;;;1.43;;
9960;SDS011;5021;51.506;11.320;2022-12-29T09:21:26;1.93;;;1.50;;
9960;SDS011;5021;51.506;11.320;2022-12-29T09:23:52;1.63;;;1.40;;
9960;SDS011;5021;51.506;11.320;2022-12-29T09:26:18;2.00;;;1.50;;
9960;SDS011;5021;51.506;11.320;2022-12-29T09:28:44;1.83;;;1.70;;
9960;SDS011;5021;51.506;11.320;2022-12-29T09:31:10;1.87;;;1.67;;
9960;SDS011;5021;51.506;11.320;2022-12-29T09:33:36;1.70;;;1.60;;
9960;SDS011;5021;51.506;11.320;2022-12-29T09:36:03;1.67;;;1.43;;
9960;SDS011;5021;51.506;11.320;2022-12-29T09:38:29;2.63;;;1.60;;
9960;SDS011;5021;51.506;11.320;2022-12-29T09:40:56;1.70;;;1.60;;
9960;SDS011;5021;51.506;11.320;2022-12-29T09:43:29;2.17;;;1.70;;
9960;SDS011;5021;51.506;11.320;2022-12-29T09:46:01;3.43;;;1.70;;
9960;SDS011;5021;51.506;11.320;2022-12-29T09:48:33;2.53;;;1.80;;
9960;SDS011;5021;51.506;11.320;2022-12-29T09:51:02;6.13;;;1.70;;
9960;SDS011;5021;51.506;11.320;2022-12-29T09:55:55;2.93;;;2.10;;
9960;SDS011;5021;51.506;11.320;2022-12-29T09:58:24;2.10;;;1.83;;
9960;SDS011;5021;51.506;11.320;2022-12-29T10:00:56;1.63;;;1.50;;
9960;SDS011;5021;51.506;11.320;2022-12-29T10:03:24;2.30;;;1.67;;
9960;SDS011;5021;51.506;11.320;2022-12-29T10:08:24;2.43;;;1.50;;
9960;SDS011;5021;51.506;11.320;2022-12-29T10:10:55;2.90;;;1.90;;
9960;SDS011;5021;51.506;11.320;2022-12-29T10:15:57;1.57;;;1.47;;
9960;SDS011;5021;51.506;11.320;2022-12-29T10:21:13;2.03;;;1.60;;
9960;SDS011;5021;51.506;11.320;2022-12-29T10:23:44;2.17;;;1.57;;
9960;SDS011;5021;51.506;11.320;2022-12-29T10:26:16;3.47;;;1.80;;
9960;SDS011;5021;51.506;11.320;2022-12-29T10:28:44;1.87;;;1.70;;
9960;SDS011;5021;51.506;11.320;2022-12-29T10:31:16;1.97;;;1.50;;
9960;SDS011;5021;51.506;11.320;2022-12-29T10:33:44;2.43;;;1.60;;
9960;SDS011;5021;51.506;11.320;2022-12-29T10:36:15;1.77;;;1.67;;
9960;SDS011;5021;51.506;11.320;2022-12-29T10:38:51;1.83;;;1.60;;
9960;SDS011;5021;51.506;11.320;2022-12-29T10:41:26;2.27;;;1.80;;
9960;SDS011;5021;51.506;11.320;2022-12-29T10:43:54;2.10;;;1.63;;
9960;SDS011;5021;51.506;11.320;2022-12-29T10:46:24;2.40;;;1.90;;
9960;SDS011;5021;51.506;11.320;2022-12-29T10:48:50;2.17;;;1.60;;
9960;SDS011;5021;51.506;11.320;2022-12-29T10:51:26;2.53;;;1.80;;
9960;SDS011;5021;51.506;11.320;2022-12-29T10:54:03;1.50;;;1.40;;
9960;SDS011;5021;51.506;11.320;2022-12-29T10:57:05;2.53;;;1.70;;
9960;SDS011;5021;51.506;11.320;2022-12-29T11:04:44;3.30;;;1.60;;
9960;SDS011;5021;51.506;11.320;2022-12-29T11:07:13;3.40;;;2.03;;
9960;SDS011;5021;51.506;11.320;2022-12-29T11:09:40;2.87;;;1.47;;
9960;SDS011;5021;51.506;11.320;2022-12-29T11:14:54;1.77;;;1.53;;
9960;SDS011;5021;51.506;11.320;2022-12-29T11:17:26;2.37;;;1.43;;
9960;SDS011;5021;51.506;11.320;2022-12-29T11:19:52;1.90;;;1.70;;
9960;SDS011;5021;51.506;11.320;2022-12-29T11:22:25;2.10;;;1.40;;
9960;SDS011;5021;51.506;11.320;2022-12-29T11:24:52;2.17;;;1.53;;
9960;SDS011;5021;51.506;11.320;2022-12-29T11:27:20;3.80;;;1.80;;
9960;SDS011;5021;51.506;11.320;2022-12-29T11:29:48;2.10;;;1.80;;
9960;SDS011;5021;51.506;11.320;2022-12-29T11:32:21;2.30;;;1.40;;
9960;SDS011;5021;51.506;11.320;2022-12-29T11:34:48;2.00;;;1.33;;
9960;SDS011;5021;51.506;11.320;2022-12-29T11:37:15;2.27;;;1.53;;
9960;SDS011;5021;51.506;11.320;2022-12-29T11:42:15;1.87;;;1.50;;
9960;SDS011;5021;51.506;11.320;2022-12-29T11:44:43;1.50;;;1.40;;
9960;SDS011;5021;51.506;11.320;2022-12-29T11:47:11;1.63;;;1.40;;
9960;SDS011;5021;51.506;11.320;2022-12-29T11:49:39;2.67;;;1.60;;
9960;SDS011;5021;51.506;11.320;2022-12-29T11:52:06;3.03;;;1.90;;
9960;SDS011;5021;51.506;11.320;2022-12-29T11:54:33;1.80;;;1.50;;
9960;SDS011;5021;51.506;11.320;2022-12-29T11:57:12;2.60;;;1.60;;
9960;SDS011;5021;51.506;11.320;2022-12-29T11:59:42;2.63;;;1.60;;
9960;SDS011;5021;51.506;11.320;2022-12-29T12:02:21;2.00;;;1.33;;
9960;SDS011;5021;51.506;11.320;2022-12-29T12:04:48;2.13;;;1.57;;
9960;SDS011;5021;51.506;11.320;2022-12-29T12:07:16;1.93;;;1.50;;
9960;SDS011;5021;51.506;11.320;2022-12-29T12:09:48;2.27;;;1.60;;
9960;SDS011;5021;51.506;11.320;2022-12-29T12:12:23;1.83;;;1.57;;
9960;SDS011;5021;51.506;11.320;2022-12-29T12:14:52;2.67;;;1.40;;
9960;SDS011;5021;51.506;11.320;2022-12-29T12:17:23;3.53;;;1.77;;
9960;SDS011;5021;51.506;11.320;2022-12-29T12:22:41;1.80;;;1.23;;
9960;SDS011;5021;51.506;11.320;2022-12-29T12:27:58;1.87;;;1.30;;
9960;SDS011;5021;51.506;11.320;2022-12-29T12:30:27;1.57;;;1.30;;
9960;SDS011;5021;51.506;11.320;2022-12-29T12:33:02;2.40;;;1.60;;
9960;SDS011;5021;51.506;11.320;2022-12-29T12:38:17;1.07;;;0.90;;
9960;SDS011;5021;51.506;11.320;2022-12-29T12:43:27;1.57;;;1.23;;
9960;SDS011;5021;51.506;11.320;2022-12-29T12:45:59;1.00;;;1.00;;
9960;SDS011;5021;51.506;11.320;2022-12-29T12:48:36;1.10;;;1.00;;
9960;SDS011;5021;51.506;11.320;2022-12-29T12:58:48;1.60;;;1.50;;
9960;SDS011;5021;51.506;11.320;2022-12-29T13:04:08;2.10;;;1.50;;
9960;SDS011;5021;51.506;11.320;2022-12-29T13:06:43;2.10;;;1.90;;
9960;SDS011;5021;51.506;11.320;2022-12-29T13:09:30;2.93;;;1.40;;
9960;SDS011;5021;51.506;11.320;2022-12-29T13:17:16;1.93;;;1.73;;
9960;SDS011;5021;51.506;11.320;2022-12-29T13:19:48;3.63;;;1.77;;
9960;SDS011;5021;51.506;11.320;2022-12-29T13:22:50;1.93;;;1.60;;
9960;SDS011;5021;51.506;11.320;2022-12-29T13:27:40;3.23;;;1.80;;
9960;SDS011;5021;51.506;11.320;2022-12-29T13:30:10;2.13;;;1.53;;
9960;SDS011;5021;51.506;11.320;2022-12-29T13:37:53;2.37;;;1.40;;
9960;SDS011;5021;51.506;11.320;2022-12-29T13:40:21;2.60;;;1.60;;
9960;SDS011;5021;51.506;11.320;2022-12-29T13:42:49;2.20;;;1.67;;
9960;SDS011;5021;51.506;11.320;2022-12-29T13:45:19;2.43;;;1.70;;
9960;SDS011;5021;51.506;11.320;2022-12-29T13:47:52;1.73;;;1.57;;
9960;SDS011;5021;51.506;11.320;2022-12-29T13:50:21;1.67;;;1.43;;
9960;SDS011;5021;51.506;11.320;2022-12-29T13:58:20;3.43;;;1.53;;
9960;SDS011;5021;51.506;11.320;2022-12-29T14:06:25;2.87;;;1.70;;
9960;SDS011;5021;51.506;11.320;2022-12-29T14:08:53;5.40;;;1.80;;
9960;SDS011;5021;51.506;11.320;2022-12-29T14:11:21;2.37;;;1.60;;
9960;SDS011;5021;51.506;11.320;2022-12-29T14:13:49;2.63;;;1.40;;
9960;SDS011;5021;51.506;11.320;2022-12-29T14:16:25;5.13;;;1.70;;
9960;SDS011;5021;51.506;11.320;2022-12-29T14:18:51;2.43;;;1.10;;
9960;SDS011;5021;51.506;11.320;2022-12-29T14:21:20;3.33;;;1.30;;
9960;SDS011;5021;51.506;11.320;2022-12-29T14:23:48;2.67;;;1.47;;
9960;SDS011;5021;51.506;11.320;2022-12-29T14:28:55;2.57;;;1.70;;
9960;SDS011;5021;51.506;11.320;2022-12-29T14:34:14;2.93;;;1.50;;
9960;SDS011;5021;51.506;11.320;2022-12-29T14:39:26;3.03;;;1.60;;
9960;SDS011;5021;51.506;11.320;2022-12-29T14:42:04;3.13;;;1.83;;
9960;SDS011;5021;51.506;11.320;2022-12-29T14:44:30;2.20;;;1.30;;
9960;SDS011;5021;51.506;11.320;2022-12-29T14:47:06;2.83;;;1.30;;
9960;SDS011;5021;51.506;11.320;2022-12-29T14:49:33;2.40;;;2.13;;
9960;SDS011;5021;51.506;11.320;2022-12-29T14:57:34;2.30;;;1.53;;
9960;SDS011;5021;51.506;11.320;2022-12-29T15:00:04;2.50;;;1.53;;
9960;SDS011;5021;51.506;11.320;2022-12-29T15:02:38;1.93;;;1.30;;
9960;SDS011;5021;51.506;11.320;2022-12-29T15:05:05;2.07;;;1.60;;
9960;SDS011;5021;51.506;11.320;2022-12-29T15:07:32;1.40;;;1.30;;
9960;SDS011;5021;51.506;11.320;2022-12-29T15:10:07;1.63;;;1.40;;
9960;SDS011;5021;51.506;11.320;2022-12-29T15:15:25;2.53;;;1.57;;
9960;SDS011;5021;51.506;11.320;2022-12-29T15:17:51;2.47;;;1.50;;
9960;SDS011;5021;51.506;11.320;2022-12-29T15:20:28;2.60;;;1.63;;
9960;SDS011;5021;51.506;11.320;2022-12-29T15:22:58;2.77;;;1.83;;
9960;SDS011;5021;51.506;11.320;2022-12-29T15:25:26;2.03;;;1.40;;
9960;SDS011;5021;51.506;11.320;2022-12-29T15:27:53;3.60;;;1.50;;
9960;SDS011;5021;51.506;11.320;2022-12-29T15:30:19;1.60;;;1.27;;
9960;SDS011;5021;51.506;11.320;2022-12-29T15:32:46;3.53;;;1.53;;
9960;SDS011;5021;51.506;11.320;2022-12-29T15:35:29;3.10;;;1.47;;
9960;SDS011;5021;51.506;11.320;2022-12-29T15:37:56;3.60;;;1.53;;
9960;SDS011;5021;51.506;11.320;2022-12-29T15:40:27;1.63;;;1.50;;
9960;SDS011;5021;51.506;11.320;2022-12-29T15:45:19;3.03;;;1.70;;
9960;SDS011;5021;51.506;11.320;2022-12-29T15:47:45;2.67;;;1.67;;
9960;SDS011;5021;51.506;11.320;2022-12-29T15:50:27;3.10;;;1.67;;
9960;SDS011;5021;51.506;11.320;2022-12-29T15:52:54;2.23;;;1.60;;
9960;SDS011;5021;51.506;11.320;2022-12-29T15:55:34;2.40;;;1.57;;
9960;SDS011;5021;51.506;11.320;2022-12-29T15:58:02;2.80;;;1.87;;
9960;SDS011;5021;51.506;11.320;2022-12-29T16:00:32;3.67;;;2.00;;
9960;SDS011;5021;51.506;11.320;2022-12-29T16:03:00;1.57;;;1.40;;
9960;SDS011;5021;51.506;11.320;2022-12-29T16:05:33;3.57;;;2.20;;
9960;SDS011;5021;51.506;11.320;2022-12-29T16:07:59;3.43;;;1.77;;
9960;SDS011;5021;51.506;11.320;2022-12-29T16:10:46;4.70;;;1.70;;
9960;SDS011;5021;51.506;11.320;2022-12-29T16:16:01;3.47;;;1.90;;
9960;SDS011;5021;51.506;11.320;2022-12-29T16:18:28;2.83;;;1.80;;
9960;SDS011;5021;51.506;11.320;2022-12-29T16:20:54;3.83;;;2.50;;
9960;SDS011;5021;51.506;11.320;2022-12-29T16:23:25;3.63;;;2.10;;
9960;SDS011;5021;51.506;11.320;2022-12-29T16:25:51;3.10;;;1.90;;
9960;SDS011;5021;51.506;11.320;2022-12-29T16:28:23;3.87;;;1.83;;
9960;SDS011;5021;51.506;11.320;2022-12-29T16:30:59;3.83;;;2.10;;
9960;SDS011;5021;51.506;11.320;2022-12-29T16:33:50;3.30;;;1.80;;
9960;SDS011;5021;51.506;11.320;2022-12-29T16:36:24;2.80;;;1.80;;
9960;SDS011;5021;51.506;11.320;2022-12-29T16:38:50;3.57;;;1.80;;
9960;SDS011;5021;51.506;11.320;2022-12-29T16:41:35;2.93;;;1.50;;
9960;SDS011;5021;51.506;11.320;2022-12-29T16:44:16;2.43;;;1.77;;
9960;SDS011;5021;51.506;11.320;2022-12-29T16:47:43;3.00;;;1.90;;
9960;SDS011;5021;51.506;11.320;2022-12-29T16:49:38;3.70;;;1.80;;
9960;SDS011;5021;51.506;11.320;2022-12-29T16:52:38;3.97;;;2.10;;
9960;SDS011;5021;51.506;11.320;2022-12-29T16:54:58;4.20;;;2.73;;
9960;SDS011;5021;51.506;11.320;2022-12-29T16:57:28;3.57;;;2.40;;
9960;SDS011;5021;51.506;11.320;2022-12-29T16:59:56;2.87;;;1.70;;
9960;SDS011;5021;51.506;11.320;2022-12-29T17:02:23;3.73;;;2.20;;
9960;SDS011;5021;51.506;11.320;2022-12-29T17:04:50;3.97;;;2.23;;
9960;SDS011;5021;51.506;11.320;2022-12-29T17:07:19;4.53;;;2.30;;